sensor_id;sensor_type;location;lat;lon;timestamp;P1;durP1;ratioP1;P2;durP2;ratioP2
53714;SDS011;39608;55.630;37.864;2023-01-28T00:02:07;10.43;;;6.93;;
53714;SDS011;39608;55.630;37.864;2023-01-28T00:07:08;13.82;;;7.43;;
53714;SDS011;39608;55.630;37.864;2023-01-28T00:12:12;9.05;;;6.53;;
53714;SDS011;39608;55.630;37.864;2023-01-28T00:17:14;11.20;;;7.38;;
53714;SDS011;39608;55.630;37.864;2023-01-28T00:22:16;14.07;;;7.55;;
53714;SDS011;39608;55.630;37.864;2023-01-28T00:27:19;14.98;;;8.15;;
53714;SDS011;39608;55.630;37.864;2023-01-28T00:32:21;14.02;;;7.18;;
53714;SDS011;39608;55.630;37.864;2023-01-28T00:37:26;9.77;;;6.72;;
53714;SDS011;39608;55.630;37.864;2023-01-28T00:42:32;13.05;;;7.68;;
53714;SDS011;39608;55.630;37.864;2023-01-28T00:47:42;14.27;;;7.50;;
53714;SDS011;39608;55.630;37.864;2023-01-28T00:52:45;11.05;;;7.25;;
53714;SDS011;39608;55.630;37.864;2023-01-28T00:57:48;13.27;;;7.45;;
53714;SDS011;39608;55.630;37.864;2023-01-28T01:02:52;9.18;;;5.80;;
53714;SDS011;39608;55.630;37.864;2023-01-28T01:07:54;14.55;;;6.93;;
53714;SDS011;39608;55.630;37.864;2023-01-28T01:12:58;9.32;;;6.05;;
53714;SDS011;39608;55.630;37.864;2023-01-28T01:18:02;10.23;;;6.60;;
53714;SDS011;39608;55.630;37.864;2023-01-28T01:23:04;8.57;;;6.72;;
53714;SDS011;39608;55.630;37.864;2023-01-28T01:28:07;9.00;;;6.32;;
53714;SDS011;39608;55.630;37.864;2023-01-28T01:33:10;7.65;;;5.95;;
53714;SDS011;39608;55.630;37.864;2023-01-28T01:38:16;10.77;;;6.60;;
53714;SDS011;39608;55.630;37.864;2023-01-28T01:43:20;9.02;;;6.28;;
53714;SDS011;39608;55.630;37.864;2023-01-28T01:53:32;6.13;;;5.35;;
53714;SDS011;39608;55.630;37.864;2023-01-28T01:58:39;5.97;;;5.30;;
53714;SDS011;39608;55.630;37.864;2023-01-28T02:03:50;7.05;;;5.53;;
53714;SDS011;39608;55.630;37.864;2023-01-28T02:08:57;5.47;;;4.88;;
53714;SDS011;39608;55.630;37.864;2023-01-28T02:14:01;7.03;;;5.22;;
53714;SDS011;39608;55.630;37.864;2023-01-28T02:19:05;5.80;;;5.22;;
53714;SDS011;39608;55.630;37.864;2023-01-28T02:24:16;6.97;;;5.07;;
53714;SDS011;39608;55.630;37.864;2023-01-28T02:29:30;7.18;;;5.45;;
53714;SDS011;39608;55.630;37.864;2023-01-28T02:34:39;7.20;;;5.47;;
53714;SDS011;39608;55.630;37.864;2023-01-28T02:39:47;7.45;;;5.97;;
53714;SDS011;39608;55.630;37.864;2023-01-28T02:44:53;8.43;;;5.20;;
53714;SDS011;39608;55.630;37.864;2023-01-28T02:49:56;8.13;;;6.00;;
53714;SDS011;39608;55.630;37.864;2023-01-28T02:55:05;9.55;;;6.60;;
53714;SDS011;39608;55.630;37.864;2023-01-28T03:00:17;7.15;;;5.45;;
53714;SDS011;39608;55.630;37.864;2023-01-28T03:05:24;9.40;;;5.90;;
53714;SDS011;39608;55.630;37.864;2023-01-28T03:10:33;10.63;;;6.38;;
53714;SDS011;39608;55.630;37.864;2023-01-28T03:15:36;9.13;;;6.28;;
53714;SDS011;39608;55.630;37.864;2023-01-28T03:21:00;10.85;;;6.30;;
53714;SDS011;39608;55.630;37.864;2023-01-28T03:26:23;7.53;;;5.57;;
53714;SDS011;39608;55.630;37.864;2023-01-28T03:31:49;9.10;;;6.38;;
53714;SDS011;39608;55.630;37.864;2023-01-28T03:37:10;7.78;;;5.88;;
53714;SDS011;39608;55.630;37.864;2023-01-28T03:42:15;9.23;;;6.43;;
53714;SDS011;39608;55.630;37.864;2023-01-28T03:47:19;8.57;;;6.97;;
53714;SDS011;39608;55.630;37.864;2023-01-28T03:52:23;9.63;;;7.53;;
53714;SDS011;39608;55.630;37.864;2023-01-28T03:57:27;11.23;;;6.70;;
53714;SDS011;39608;55.630;37.864;2023-01-28T04:02:33;8.70;;;6.28;;
53714;SDS011;39608;55.630;37.864;2023-01-28T04:07:35;11.07;;;6.65;;
53714;SDS011;39608;55.630;37.864;2023-01-28T04:12:37;6.88;;;5.07;;
53714;SDS011;39608;55.630;37.864;2023-01-28T04:17:41;8.63;;;5.13;;
53714;SDS011;39608;55.630;37.864;2023-01-28T04:22:45;7.95;;;5.30;;
53714;SDS011;39608;55.630;37.864;2023-01-28T04:27:47;9.45;;;5.55;;
53714;SDS011;39608;55.630;37.864;2023-01-28T04:32:54;7.78;;;5.55;;
53714;SDS011;39608;55.630;37.864;2023-01-28T04:37:56;8.38;;;6.18;;
53714;SDS011;39608;55.630;37.864;2023-01-28T04:43:03;8.60;;;5.65;;
53714;SDS011;39608;55.630;37.864;2023-01-28T04:48:09;7.65;;;5.60;;
53714;SDS011;39608;55.630;37.864;2023-01-28T04:53:11;8.52;;;6.05;;
53714;SDS011;39608;55.630;37.864;2023-01-28T04:58:16;8.75;;;6.10;;
53714;SDS011;39608;55.630;37.864;2023-01-28T05:03:20;10.27;;;6.78;;
53714;SDS011;39608;55.630;37.864;2023-01-28T05:08:25;11.18;;;7.07;;
53714;SDS011;39608;55.630;37.864;2023-01-28T05:13:27;11.77;;;7.18;;
53714;SDS011;39608;55.630;37.864;2023-01-28T05:18:36;10.02;;;6.95;;
53714;SDS011;39608;55.630;37.864;2023-01-28T05:23:40;11.15;;;7.50;;
53714;SDS011;39608;55.630;37.864;2023-01-28T05:28:45;10.32;;;6.57;;
53714;SDS011;39608;55.630;37.864;2023-01-28T05:33:49;11.55;;;7.45;;
53714;SDS011;39608;55.630;37.864;2023-01-28T05:38:52;10.65;;;7.30;;
53714;SDS011;39608;55.630;37.864;2023-01-28T05:43:58;10.60;;;6.07;;
53714;SDS011;39608;55.630;37.864;2023-01-28T05:49:02;9.48;;;6.13;;
53714;SDS011;39608;55.630;37.864;2023-01-28T05:54:07;9.97;;;6.00;;
53714;SDS011;39608;55.630;37.864;2023-01-28T05:59:10;10.27;;;6.25;;
53714;SDS011;39608;55.630;37.864;2023-01-28T06:04:13;9.57;;;5.93;;
53714;SDS011;39608;55.630;37.864;2023-01-28T06:09:18;7.28;;;5.18;;
53714;SDS011;39608;55.630;37.864;2023-01-28T06:14:22;14.70;;;5.90;;
53714;SDS011;39608;55.630;37.864;2023-01-28T06:19:26;17.10;;;8.43;;
53714;SDS011;39608;55.630;37.864;2023-01-28T06:24:28;22.63;;;10.45;;
53714;SDS011;39608;55.630;37.864;2023-01-28T06:29:30;15.95;;;8.32;;
53714;SDS011;39608;55.630;37.864;2023-01-28T06:34:34;12.07;;;8.70;;
53714;SDS011;39608;55.630;37.864;2023-01-28T06:39:36;14.63;;;8.90;;
53714;SDS011;39608;55.630;37.864;2023-01-28T06:44:38;12.00;;;7.63;;
53714;SDS011;39608;55.630;37.864;2023-01-28T06:49:41;18.92;;;8.35;;
53714;SDS011;39608;55.630;37.864;2023-01-28T06:54:43;10.77;;;7.47;;
53714;SDS011;39608;55.630;37.864;2023-01-28T06:59:45;11.95;;;7.90;;
53714;SDS011;39608;55.630;37.864;2023-01-28T07:04:50;9.25;;;7.35;;
53714;SDS011;39608;55.630;37.864;2023-01-28T07:09:52;10.13;;;7.32;;
53714;SDS011;39608;55.630;37.864;2023-01-28T07:14:54;12.25;;;7.93;;
53714;SDS011;39608;55.630;37.864;2023-01-28T07:19:57;13.90;;;8.05;;
53714;SDS011;39608;55.630;37.864;2023-01-28T07:25:04;14.68;;;7.88;;
53714;SDS011;39608;55.630;37.864;2023-01-28T07:30:07;12.93;;;7.47;;
53714;SDS011;39608;55.630;37.864;2023-01-28T07:35:12;12.10;;;8.35;;
53714;SDS011;39608;55.630;37.864;2023-01-28T07:40:15;13.57;;;7.90;;
53714;SDS011;39608;55.630;37.864;2023-01-28T07:45:17;9.95;;;6.38;;
53714;SDS011;39608;55.630;37.864;2023-01-28T07:50:24;12.80;;;6.90;;
53714;SDS011;39608;55.630;37.864;2023-01-28T07:55:28;10.00;;;6.10;;
53714;SDS011;39608;55.630;37.864;2023-01-28T08:00:31;9.52;;;6.18;;
53714;SDS011;39608;55.630;37.864;2023-01-28T08:05:38;11.25;;;6.72;;
53714;SDS011;39608;55.630;37.864;2023-01-28T08:10:43;10.50;;;6.55;;
53714;SDS011;39608;55.630;37.864;2023-01-28T08:15:46;13.60;;;6.95;;
53714;SDS011;39608;55.630;37.864;2023-01-28T08:20:53;11.90;;;6.35;;
53714;SDS011;39608;55.630;37.864;2023-01-28T08:25:56;14.13;;;6.78;;
53714;SDS011;39608;55.630;37.864;2023-01-28T08:30:59;18.52;;;7.97;;
53714;SDS011;39608;55.630;37.864;2023-01-28T08:36:03;12.82;;;6.35;;
53714;SDS011;39608;55.630;37.864;2023-01-28T08:41:06;9.55;;;6.10;;
53714;SDS011;39608;55.630;37.864;2023-01-28T08:46:08;8.95;;;6.32;;
53714;SDS011;39608;55.630;37.864;2023-01-28T08:51:11;13.15;;;6.18;;
53714;SDS011;39608;55.630;37.864;2023-01-28T08:56:13;13.57;;;6.82;;
53714;SDS011;39608;55.630;37.864;2023-01-28T09:01:18;12.30;;;6.70;;
53714;SDS011;39608;55.630;37.864;2023-01-28T09:06:22;9.57;;;6.10;;
53714;SDS011;39608;55.630;37.864;2023-01-28T09:11:26;9.63;;;6.03;;
53714;SDS011;39608;55.630;37.864;2023-01-28T09:16:28;7.53;;;5.32;;
53714;SDS011;39608;55.630;37.864;2023-01-28T09:21:32;8.43;;;5.30;;
53714;SDS011;39608;55.630;37.864;2023-01-28T09:26:34;8.20;;;5.05;;
53714;SDS011;39608;55.630;37.864;2023-01-28T09:31:37;8.13;;;4.93;;
53714;SDS011;39608;55.630;37.864;2023-01-28T09:36:41;5.47;;;4.10;;
53714;SDS011;39608;55.630;37.864;2023-01-28T09:41:47;9.20;;;4.20;;
53714;SDS011;39608;55.630;37.864;2023-01-28T09:47:00;5.75;;;4.30;;
53714;SDS011;39608;55.630;37.864;2023-01-28T09:52:07;6.18;;;4.50;;
53714;SDS011;39608;55.630;37.864;2023-01-28T09:57:17;6.38;;;4.43;;
53714;SDS011;39608;55.630;37.864;2023-01-28T10:02:26;6.53;;;4.50;;
53714;SDS011;39608;55.630;37.864;2023-01-28T10:07:41;10.15;;;5.60;;
53714;SDS011;39608;55.630;37.864;2023-01-28T10:13:09;9.57;;;5.57;;
53714;SDS011;39608;55.630;37.864;2023-01-28T10:18:23;9.80;;;5.68;;
53714;SDS011;39608;55.630;37.864;2023-01-28T10:23:43;9.43;;;5.78;;
53714;SDS011;39608;55.630;37.864;2023-01-28T10:28:52;8.00;;;4.95;;
53714;SDS011;39608;55.630;37.864;2023-01-28T10:33:57;9.00;;;5.65;;
53714;SDS011;39608;55.630;37.864;2023-01-28T10:39:01;9.18;;;5.07;;
53714;SDS011;39608;55.630;37.864;2023-01-28T10:44:03;13.20;;;6.28;;
53714;SDS011;39608;55.630;37.864;2023-01-28T10:49:10;9.90;;;4.82;;
53714;SDS011;39608;55.630;37.864;2023-01-28T10:54:21;10.13;;;6.25;;
53714;SDS011;39608;55.630;37.864;2023-01-28T10:59:25;14.75;;;6.18;;
53714;SDS011;39608;55.630;37.864;2023-01-28T11:04:29;9.48;;;5.93;;
53714;SDS011;39608;55.630;37.864;2023-01-28T11:09:34;9.00;;;5.97;;
53714;SDS011;39608;55.630;37.864;2023-01-28T11:14:37;10.52;;;6.43;;
53714;SDS011;39608;55.630;37.864;2023-01-28T11:19:50;11.70;;;6.32;;
53714;SDS011;39608;55.630;37.864;2023-01-28T11:24:58;11.05;;;6.13;;
53714;SDS011;39608;55.630;37.864;2023-01-28T11:30:02;10.90;;;6.30;;
53714;SDS011;39608;55.630;37.864;2023-01-28T11:35:06;10.95;;;6.50;;
53714;SDS011;39608;55.630;37.864;2023-01-28T11:40:15;7.82;;;5.95;;
53714;SDS011;39608;55.630;37.864;2023-01-28T11:45:22;8.60;;;5.90;;
53714;SDS011;39608;55.630;37.864;2023-01-28T11:50:32;11.13;;;6.97;;
53714;SDS011;39608;55.630;37.864;2023-01-28T11:55:47;10.93;;;6.38;;
53714;SDS011;39608;55.630;37.864;2023-01-28T12:11:48;9.60;;;6.18;;
53714;SDS011;39608;55.630;37.864;2023-01-28T12:17:16;8.88;;;6.45;;
53714;SDS011;39608;55.630;37.864;2023-01-28T12:22:35;13.65;;;6.43;;
53714;SDS011;39608;55.630;37.864;2023-01-28T12:27:57;10.43;;;6.68;;
53714;SDS011;39608;55.630;37.864;2023-01-28T12:33:13;10.98;;;7.13;;
53714;SDS011;39608;55.630;37.864;2023-01-28T12:38:39;10.40;;;6.85;;
53714;SDS011;39608;55.630;37.864;2023-01-28T12:43:52;12.77;;;7.00;;
53714;SDS011;39608;55.630;37.864;2023-01-28T12:49:06;11.15;;;5.72;;
53714;SDS011;39608;55.630;37.864;2023-01-28T12:54:15;11.35;;;5.78;;
53714;SDS011;39608;55.630;37.864;2023-01-28T12:59:28;10.88;;;6.63;;
53714;SDS011;39608;55.630;37.864;2023-01-28T13:04:37;10.80;;;6.20;;
53714;SDS011;39608;55.630;37.864;2023-01-28T13:09:47;9.45;;;6.60;;
53714;SDS011;39608;55.630;37.864;2023-01-28T13:14:54;11.85;;;6.63;;
53714;SDS011;39608;55.630;37.864;2023-01-28T13:19:57;10.23;;;6.28;;
53714;SDS011;39608;55.630;37.864;2023-01-28T13:25:11;10.43;;;6.57;;
53714;SDS011;39608;55.630;37.864;2023-01-28T13:30:25;10.45;;;6.32;;
53714;SDS011;39608;55.630;37.864;2023-01-28T13:35:32;10.57;;;6.68;;
53714;SDS011;39608;55.630;37.864;2023-01-28T13:40:36;9.30;;;6.10;;
53714;SDS011;39608;55.630;37.864;2023-01-28T13:45:55;10.43;;;6.28;;
53714;SDS011;39608;55.630;37.864;2023-01-28T13:50:58;12.38;;;6.80;;
53714;SDS011;39608;55.630;37.864;2023-01-28T13:56:03;10.30;;;7.03;;
53714;SDS011;39608;55.630;37.864;2023-01-28T14:01:29;8.38;;;5.95;;
53714;SDS011;39608;55.630;37.864;2023-01-28T14:07:17;10.15;;;6.55;;
53714;SDS011;39608;55.630;37.864;2023-01-28T14:12:53;13.85;;;6.95;;
53714;SDS011;39608;55.630;37.864;2023-01-28T14:18:14;12.20;;;7.43;;
53714;SDS011;39608;55.630;37.864;2023-01-28T14:23:25;8.88;;;6.05;;
53714;SDS011;39608;55.630;37.864;2023-01-28T14:28:34;12.00;;;6.45;;
53714;SDS011;39608;55.630;37.864;2023-01-28T14:33:48;9.77;;;6.55;;
53714;SDS011;39608;55.630;37.864;2023-01-28T14:38:53;9.35;;;6.15;;
53714;SDS011;39608;55.630;37.864;2023-01-28T14:43:56;10.32;;;6.47;;
53714;SDS011;39608;55.630;37.864;2023-01-28T14:49:04;12.68;;;7.07;;
53714;SDS011;39608;55.630;37.864;2023-01-28T14:54:29;9.95;;;6.30;;
53714;SDS011;39608;55.630;37.864;2023-01-28T14:59:40;14.18;;;7.18;;
53714;SDS011;39608;55.630;37.864;2023-01-28T15:04:50;9.85;;;6.30;;
53714;SDS011;39608;55.630;37.864;2023-01-28T15:10:02;13.00;;;7.72;;
53714;SDS011;39608;55.630;37.864;2023-01-28T15:15:09;18.75;;;7.47;;
53714;SDS011;39608;55.630;37.864;2023-01-28T15:20:15;13.32;;;6.75;;
53714;SDS011;39608;55.630;37.864;2023-01-28T15:25:20;13.40;;;7.40;;
53714;SDS011;39608;55.630;37.864;2023-01-28T15:30:26;12.15;;;7.18;;
53714;SDS011;39608;55.630;37.864;2023-01-28T15:35:31;12.30;;;7.78;;
53714;SDS011;39608;55.630;37.864;2023-01-28T15:40:39;11.33;;;7.40;;
53714;SDS011;39608;55.630;37.864;2023-01-28T15:45:43;15.35;;;8.43;;
53714;SDS011;39608;55.630;37.864;2023-01-28T15:50:56;14.57;;;8.50;;
53714;SDS011;39608;55.630;37.864;2023-01-28T15:56:06;14.30;;;8.48;;
53714;SDS011;39608;55.630;37.864;2023-01-28T16:01:14;12.27;;;7.60;;
53714;SDS011;39608;55.630;37.864;2023-01-28T16:06:18;13.20;;;7.47;;
53714;SDS011;39608;55.630;37.864;2023-01-28T16:11:24;14.77;;;7.53;;
53714;SDS011;39608;55.630;37.864;2023-01-28T16:16:30;13.27;;;7.88;;
53714;SDS011;39608;55.630;37.864;2023-01-28T16:21:36;16.52;;;8.30;;
53714;SDS011;39608;55.630;37.864;2023-01-28T16:26:44;16.15;;;7.28;;
53714;SDS011;39608;55.630;37.864;2023-01-28T16:31:56;17.60;;;8.73;;
53714;SDS011;39608;55.630;37.864;2023-01-28T16:37:07;12.15;;;8.02;;
53714;SDS011;39608;55.630;37.864;2023-01-28T16:42:10;13.20;;;8.68;;
53714;SDS011;39608;55.630;37.864;2023-01-28T16:47:12;13.25;;;8.15;;
53714;SDS011;39608;55.630;37.864;2023-01-28T16:52:16;10.90;;;7.68;;
53714;SDS011;39608;55.630;37.864;2023-01-28T16:57:19;12.90;;;7.90;;
53714;SDS011;39608;55.630;37.864;2023-01-28T17:02:22;13.95;;;8.18;;
53714;SDS011;39608;55.630;37.864;2023-01-28T17:07:26;14.13;;;9.02;;
53714;SDS011;39608;55.630;37.864;2023-01-28T17:12:28;13.48;;;9.00;;
53714;SDS011;39608;55.630;37.864;2023-01-28T17:17:30;15.25;;;9.75;;
53714;SDS011;39608;55.630;37.864;2023-01-28T17:22:33;18.98;;;10.25;;
53714;SDS011;39608;55.630;37.864;2023-01-28T17:27:35;15.98;;;10.05;;
53714;SDS011;39608;55.630;37.864;2023-01-28T17:32:39;16.13;;;9.63;;
53714;SDS011;39608;55.630;37.864;2023-01-28T17:37:44;19.15;;;9.65;;
53714;SDS011;39608;55.630;37.864;2023-01-28T17:42:46;18.05;;;9.38;;
53714;SDS011;39608;55.630;37.864;2023-01-28T17:47:48;16.33;;;10.52;;
53714;SDS011;39608;55.630;37.864;2023-01-28T17:52:54;17.83;;;10.77;;
53714;SDS011;39608;55.630;37.864;2023-01-28T17:58:02;19.00;;;10.98;;
53714;SDS011;39608;55.630;37.864;2023-01-28T18:03:04;19.52;;;11.38;;
53714;SDS011;39608;55.630;37.864;2023-01-28T18:08:07;18.38;;;11.02;;
53714;SDS011;39608;55.630;37.864;2023-01-28T18:13:11;22.77;;;11.10;;
53714;SDS011;39608;55.630;37.864;2023-01-28T18:18:13;24.05;;;11.13;;
53714;SDS011;39608;55.630;37.864;2023-01-28T18:23:17;20.38;;;11.60;;
53714;SDS011;39608;55.630;37.864;2023-01-28T18:28:19;21.17;;;11.40;;
53714;SDS011;39608;55.630;37.864;2023-01-28T18:33:21;21.00;;;10.55;;
53714;SDS011;39608;55.630;37.864;2023-01-28T18:38:25;15.93;;;10.32;;
53714;SDS011;39608;55.630;37.864;2023-01-28T18:43:27;20.75;;;12.95;;
53714;SDS011;39608;55.630;37.864;2023-01-28T18:48:31;20.50;;;12.43;;
53714;SDS011;39608;55.630;37.864;2023-01-28T18:53:35;26.88;;;14.15;;
53714;SDS011;39608;55.630;37.864;2023-01-28T18:58:37;27.05;;;15.27;;
53714;SDS011;39608;55.630;37.864;2023-01-28T19:03:39;24.85;;;13.75;;
53714;SDS011;39608;55.630;37.864;2023-01-28T19:08:42;25.80;;;14.73;;
53714;SDS011;39608;55.630;37.864;2023-01-28T19:13:44;28.30;;;15.60;;
53714;SDS011;39608;55.630;37.864;2023-01-28T19:18:49;30.15;;;15.73;;
53714;SDS011;39608;55.630;37.864;2023-01-28T19:23:54;27.15;;;14.23;;
53714;SDS011;39608;55.630;37.864;2023-01-28T19:28:57;25.02;;;13.23;;
53714;SDS011;39608;55.630;37.864;2023-01-28T19:34:00;23.77;;;13.13;;
53714;SDS011;39608;55.630;37.864;2023-01-28T19:39:04;24.63;;;12.80;;
53714;SDS011;39608;55.630;37.864;2023-01-28T19:44:08;25.25;;;13.48;;
53714;SDS011;39608;55.630;37.864;2023-01-28T19:49:10;27.50;;;13.70;;
53714;SDS011;39608;55.630;37.864;2023-01-28T19:54:14;30.13;;;14.82;;
53714;SDS011;39608;55.630;37.864;2023-01-28T19:59:16;38.92;;;18.27;;
53714;SDS011;39608;55.630;37.864;2023-01-28T20:04:19;31.08;;;15.82;;
53714;SDS011;39608;55.630;37.864;2023-01-28T20:09:22;28.23;;;16.48;;
53714;SDS011;39608;55.630;37.864;2023-01-28T20:14:24;31.33;;;16.88;;
53714;SDS011;39608;55.630;37.864;2023-01-28T20:19:27;27.75;;;15.10;;
53714;SDS011;39608;55.630;37.864;2023-01-28T20:24:30;28.85;;;15.45;;
53714;SDS011;39608;55.630;37.864;2023-01-28T20:29:32;30.48;;;15.35;;
53714;SDS011;39608;55.630;37.864;2023-01-28T20:34:34;34.88;;;16.88;;
53714;SDS011;39608;55.630;37.864;2023-01-28T20:39:38;29.58;;;15.60;;
53714;SDS011;39608;55.630;37.864;2023-01-28T20:44:40;28.77;;;15.07;;
53714;SDS011;39608;55.630;37.864;2023-01-28T20:49:41;30.65;;;15.63;;
53714;SDS011;39608;55.630;37.864;2023-01-28T20:54:50;35.58;;;20.83;;
53714;SDS011;39608;55.630;37.864;2023-01-28T20:59:53;38.78;;;22.10;;
53714;SDS011;39608;55.630;37.864;2023-01-28T21:04:54;48.97;;;26.50;;
53714;SDS011;39608;55.630;37.864;2023-01-28T21:09:58;44.45;;;24.83;;
53714;SDS011;39608;55.630;37.864;2023-01-28T21:15:00;43.00;;;23.95;;
53714;SDS011;39608;55.630;37.864;2023-01-28T21:20:04;36.70;;;21.20;;
53714;SDS011;39608;55.630;37.864;2023-01-28T21:25:08;57.20;;;30.65;;
53714;SDS011;39608;55.630;37.864;2023-01-28T21:30:11;57.42;;;28.33;;
53714;SDS011;39608;55.630;37.864;2023-01-28T21:35:14;51.90;;;29.40;;
53714;SDS011;39608;55.630;37.864;2023-01-28T21:40:17;70.53;;;32.67;;
53714;SDS011;39608;55.630;37.864;2023-01-28T21:45:20;69.22;;;33.63;;
53714;SDS011;39608;55.630;37.864;2023-01-28T21:50:22;75.15;;;34.35;;
53714;SDS011;39608;55.630;37.864;2023-01-28T21:55:26;71.03;;;34.45;;
53714;SDS011;39608;55.630;37.864;2023-01-28T22:00:28;65.63;;;32.10;;
53714;SDS011;39608;55.630;37.864;2023-01-28T22:05:30;54.53;;;25.50;;
53714;SDS011;39608;55.630;37.864;2023-01-28T22:10:33;60.20;;;29.10;;
53714;SDS011;39608;55.630;37.864;2023-01-28T22:15:36;52.20;;;25.08;;
53714;SDS011;39608;55.630;37.864;2023-01-28T22:20:39;55.65;;;26.20;;
53714;SDS011;39608;55.630;37.864;2023-01-28T22:25:43;47.97;;;21.38;;
53714;SDS011;39608;55.630;37.864;2023-01-28T22:30:45;72.05;;;29.40;;
53714;SDS011;39608;55.630;37.864;2023-01-28T22:35:48;70.05;;;30.63;;
53714;SDS011;39608;55.630;37.864;2023-01-28T22:40:51;61.47;;;27.98;;
53714;SDS011;39608;55.630;37.864;2023-01-28T22:45:56;57.38;;;24.02;;
53714;SDS011;39608;55.630;37.864;2023-01-28T22:51:01;49.00;;;23.05;;
53714;SDS011;39608;55.630;37.864;2023-01-28T22:56:06;52.80;;;23.40;;
53714;SDS011;39608;55.630;37.864;2023-01-28T23:01:08;53.10;;;23.17;;
53714;SDS011;39608;55.630;37.864;2023-01-28T23:06:15;60.28;;;24.00;;
53714;SDS011;39608;55.630;37.864;2023-01-28T23:11:19;62.83;;;24.88;;
53714;SDS011;39608;55.630;37.864;2023-01-28T23:16:26;60.50;;;23.23;;
53714;SDS011;39608;55.630;37.864;2023-01-28T23:21:46;56.05;;;23.38;;
53714;SDS011;39608;55.630;37.864;2023-01-28T23:27:21;56.33;;;24.75;;
53714;SDS011;39608;55.630;37.864;2023-01-28T23:32:23;165.70;;;23.33;;
53714;SDS011;39608;55.630;37.864;2023-01-28T23:37:26;106.72;;;23.08;;
53714;SDS011;39608;55.630;37.864;2023-01-28T23:42:30;112.43;;;22.90;;
53714;SDS011;39608;55.630;37.864;2023-01-28T23:47:32;101.43;;;23.95;;
53714;SDS011;39608;55.630;37.864;2023-01-28T23:52:34;67.43;;;22.50;;
53714;SDS011;39608;55.630;37.864;2023-01-28T23:57:38;62.22;;;20.85;;
